.
WxDataArchive / Data Records for 2008-08-14
2008-08-13 August 2008 2008-08-15

Data Records for Thursday, 14 August 2008

Time	Temp	Chill	HIndex	Humid	Dewpt	 Wind 	HiWind	WindDir	Rain 	Barom 
-----	----	-----	------	-----	-----	------	------	-------	-----	----- 
00:00	62.9	62.9	62.9	93	60.8	0	0	---	0.00	29.782 
00:05	62.7	62.7	62.7	93	60.6	0	0	---	0.00	29.781 
00:10	62.6	62.6	62.6	93	60.5	0	0	---	0.00	29.782 
00:15	62.4	62.4	62.4	93	60.3	0	0	---	0.00	29.781 
00:20	62.3	62.3	62.3	93	60.2	0	0	---	0.00	29.781 
00:25	62.3	62.3	62.3	93	60.2	0	0	---	0.00	29.779 
00:30	62.1	62.1	62.1	94	60.3	0	0	---	0.00	29.780 
00:35	62.1	62.1	62.1	94	60.3	0	0	---	0.00	29.780 
00:40	62.0	62.0	62.0	94	60.2	0	0	---	0.00	29.780 
00:45	62.0	62.0	62.0	94	60.2	0	0	---	0.00	29.777 
00:50	61.8	61.8	61.8	94	60.1	0	0	---	0.00	29.776 
00:55	61.8	61.8	61.8	94	60.1	0	0	---	0.00	29.771 
01:00	61.6	61.6	61.6	94	59.9	0	0	---	0.00	29.770 
01:05	61.6	61.6	61.6	94	59.9	0	0	---	0.00	29.767 
01:10	61.6	61.6	61.6	94	59.9	0	0	---	0.00	29.767 
01:15	61.5	61.5	61.5	94	59.8	0	0	---	0.00	29.766 
01:20	61.5	61.5	61.5	94	59.8	0	0	---	0.00	29.765 
01:25	61.3	61.3	61.3	94	59.6	0	0	---	0.00	29.766 
01:30	61.3	61.3	61.3	94	59.6	0	0	---	0.00	29.767 
01:35	61.2	61.2	61.2	94	59.5	0	0	---	0.00	29.767 
01:40	61.0	61.0	61.0	94	59.3	0	0	---	0.00	29.768 
01:45	61.0	61.0	61.0	94	59.3	0	0	---	0.00	29.767 
01:50	60.9	60.9	60.9	94	59.2	0	0	---	0.00	29.768 
01:55	60.9	60.9	60.9	94	59.2	0	0	---	0.00	29.768 
02:00	60.9	60.9	60.9	94	59.2	0	0	---	0.00	29.767 
02:05	60.7	60.7	60.7	94	59.0	0	0	---	0.00	29.767 
02:10	60.7	60.7	60.7	94	59.0	0	0	---	0.00	29.766 
02:15	60.5	60.5	60.5	94	58.8	0	0	---	0.00	29.763 
02:20	60.4	60.4	60.4	94	58.7	0	0	---	0.00	29.763 
02:25	60.4	60.4	60.4	94	58.7	0	0	---	0.00	29.765 
02:30	60.2	60.2	60.2	95	58.8	0	0	---	0.00	29.763 
02:35	60.2	60.2	60.2	95	58.8	0	0	---	0.00	29.760 
02:40	60.2	60.2	60.2	95	58.8	0	0	---	0.00	29.762 
02:45	60.1	60.1	60.1	95	58.7	0	0	---	0.00	29.760 
02:50	59.9	59.9	59.9	95	58.5	0	0	---	0.00	29.760 
02:55	59.9	59.9	59.9	95	58.5	0	0	---	0.00	29.762 
03:00	59.8	59.8	59.8	95	58.4	0	0	---	0.00	29.762 
03:05	59.6	59.6	59.6	95	58.2	0	0	---	0.00	29.773 
03:10	59.5	59.5	59.5	95	58.1	0	0	---	0.00	29.770 
03:15	59.5	59.5	59.5	95	58.1	0	0	---	0.00	29.772 
03:20	59.5	59.5	59.5	95	58.1	0	0	---	0.00	29.774 
03:25	59.3	59.3	59.3	95	57.9	0	0	---	0.00	29.774 
03:30	59.2	59.2	59.2	95	57.8	0	0	---	0.00	29.773 
03:35	59.2	59.2	59.2	95	57.8	0	0	---	0.00	29.772 
03:40	59.0	59.0	59.0	95	57.6	0	0	---	0.00	29.773 
03:45	58.9	58.9	58.9	95	57.5	0	0	---	0.00	29.771 
03:50	58.7	58.7	58.7	95	57.3	0	0	---	0.00	29.769 
03:55	58.7	58.7	58.7	95	57.3	0	0	---	0.00	29.770 
04:00	58.6	58.6	58.6	95	57.2	0	0	---	0.00	29.768 
04:05	58.4	58.4	58.4	95	57.0	0	0	---	0.00	29.768 
04:10	58.3	58.3	58.3	95	56.9	0	0	---	0.00	29.770 
04:15	58.3	58.3	58.3	95	56.9	0	0	---	0.00	29.774 
04:20	58.3	58.3	58.3	95	56.9	0	0	---	0.00	29.777 
04:25	58.1	58.1	58.1	95	56.7	0	0	---	0.00	29.780 
04:30	58.3	58.3	58.3	95	56.9	0	0	---	0.00	29.782 
04:35	58.3	58.3	58.3	96	57.2	0	0	---	0.00	29.781 
04:40	58.3	58.3	58.3	96	57.2	0	0	---	0.00	29.781 
04:45	58.3	58.3	58.3	96	57.2	0	0	---	0.00	29.781 
04:50	58.3	58.3	58.3	96	57.2	0	0	---	0.00	29.781 
04:55	58.3	58.3	58.3	96	57.2	0	1	315	0.00	29.782 
05:00	58.1	58.1	58.1	96	57.0	0	0	---	0.00	29.784 
05:05	58.3	58.3	58.3	96	57.2	0	1	315	0.00	29.785 
05:10	58.3	58.3	58.3	96	57.2	0	0	---	0.00	29.790 
05:15	58.3	58.3	58.3	96	57.2	0	0	---	0.00	29.792 
05:20	58.3	58.3	58.3	96	57.2	0	0	---	0.00	29.794 
05:25	58.4	58.4	58.4	96	57.3	0	0	---	0.00	29.795 
05:30	58.6	58.6	58.6	96	57.5	0	0	---	0.00	29.794 
05:35	58.6	58.6	58.6	96	57.5	0	0	---	0.00	29.794 
05:40	58.7	58.7	58.7	96	57.6	0	0	---	0.00	29.794 
05:45	58.7	58.7	58.7	96	57.6	0	0	---	0.00	29.795 
05:50	59.0	59.0	59.0	96	57.9	0	0	---	0.00	29.798 
05:55	59.2	59.2	59.2	96	58.1	0	0	---	0.00	29.801 
06:00	59.2	59.2	59.2	96	58.1	0	0	---	0.00	29.802 
06:05	59.2	59.2	59.2	96	58.1	0	0	---	0.00	29.804 
06:10	59.3	59.3	59.3	96	58.2	0	0	---	0.00	29.803 
06:15	59.3	59.3	59.3	96	58.2	0	0	---	0.00	29.808 
06:20	59.3	59.3	59.3	96	58.2	0	0	---	0.00	29.808 
06:25	59.5	59.5	59.5	96	58.4	0	0	---	0.00	29.806 
06:30	59.5	59.5	59.5	96	58.4	0	0	---	0.00	29.807 
06:35	59.5	59.5	59.5	96	58.4	0	0	---	0.00	29.807 
06:40	59.6	59.6	59.6	96	58.5	0	0	---	0.00	29.808 
06:45	59.8	59.8	59.8	96	58.7	0	0	---	0.00	29.809 
06:50	59.9	59.9	59.9	96	58.8	0	0	---	0.00	29.810 
06:55	60.1	60.1	60.1	96	59.0	0	0	---	0.00	29.810 
07:00	60.2	60.2	60.2	96	59.1	0	0	---	0.00	29.811 
07:05	60.4	60.4	60.4	96	59.3	0	0	---	0.00	29.813 
07:10	60.5	60.5	60.5	96	59.4	0	0	---	0.00	29.812 
07:15	60.7	60.7	60.7	96	59.6	0	0	---	0.00	29.810 
07:20	60.9	60.9	60.9	96	59.7	0	0	---	0.00	29.810 
07:25	61.2	61.2	61.2	96	60.0	0	0	---	0.00	29.812 
07:30	61.3	61.3	61.3	96	60.1	0	0	---	0.00	29.809 
07:35	61.5	61.5	61.5	96	60.3	0	0	---	0.00	29.810 
07:40	62.0	62.0	62.0	96	60.8	0	0	---	0.00	29.810 
07:45	62.1	62.1	62.1	96	60.9	0	1	315	0.00	29.808 
07:50	62.4	62.4	62.4	96	61.2	0	2	315	0.00	29.808 
07:55	62.7	62.7	62.7	96	61.5	0	1	315	0.00	29.806 
08:00	62.9	62.9	62.9	96	61.7	0	1	315	0.00	29.811 
08:05	63.4	63.4	63.4	96	62.2	0	1	315	0.00	29.815 
08:10	63.7	63.7	63.7	96	62.5	0	2	315	0.00	29.817 
08:15	63.9	63.9	63.9	95	62.4	0	2	338	0.00	29.821 
08:20	64.3	64.3	64.3	95	62.8	0	1	338	0.00	29.820 
08:25	64.5	64.5	64.5	94	62.7	0	0	---	0.00	29.821 
08:30	64.5	64.5	64.5	93	62.4	0	2	338	0.00	29.820 
08:35	64.8	64.8	64.8	92	62.4	0	1	338	0.00	29.820 
08:40	65.0	65.0	65.0	91	62.3	0	1	338	0.00	29.821 
08:45	65.2	65.2	65.2	90	62.2	0	0	---	0.00	29.828 
08:50	65.2	65.2	65.2	89	61.9	0	0	---	0.00	29.832 
08:55	65.5	65.5	65.5	89	62.2	0	1	338	0.00	29.833 
09:00	65.6	65.6	65.6	88	61.9	0	1	338	0.00	29.835 
09:05	65.8	65.8	65.8	87	61.8	0	1	338	0.00	29.835 
09:10	66.1	66.1	66.1	87	62.1	0	0	---	0.00	29.836 
09:15	66.3	66.3	66.3	86	62.0	0	1	338	0.00	29.836 
09:20	66.6	66.6	66.6	85	61.9	0	1	338	0.00	29.834 
09:25	66.9	66.9	66.9	84	61.9	0	1	338	0.00	29.835 
09:30	67.3	67.3	67.3	84	62.3	0	0	---	0.00	29.836 
09:35	67.6	67.6	67.6	82	61.9	0	2	338	0.00	29.837 
09:40	68.1	68.1	68.1	81	62.0	1	3	338	0.00	29.836 
09:45	68.4	68.4	68.4	81	62.3	0	2	0	0.00	29.838 
09:50	68.8	68.8	68.8	81	62.7	0	1	0	0.00	29.840 
09:55	69.1	69.1	69.1	80	62.7	0	2	0	0.00	29.843 
10:00	69.3	69.3	69.3	80	62.9	0	1	0	0.00	29.845 
10:05	69.3	69.3	69.3	80	62.9	0	2	0	0.00	29.849 
10:10	69.1	69.1	69.1	79	62.3	0	2	0	0.00	29.847 
10:15	69.1	69.1	69.1	79	62.3	0	0	---	0.00	29.847 
10:20	69.1	69.1	69.1	79	62.3	0	1	0	0.00	29.849 
10:25	69.3	69.3	69.3	79	62.5	0	1	0	0.00	29.850 
10:30	69.3	69.3	69.3	78	62.1	0	1	0	0.00	29.851 
10:35	69.4	69.4	69.4	79	62.6	0	1	0	0.00	29.855 
10:40	69.8	69.8	69.8	78	62.6	0	0	---	0.00	29.856 
10:45	69.9	69.9	69.9	78	62.7	0	1	0	0.00	29.854 
10:50	70.1	70.1	70.1	77	62.5	0	1	0	0.00	29.857 
10:55	70.1	70.1	70.1	77	62.5	0	1	0	0.00	29.857 
11:00	70.3	70.3	70.3	77	62.7	0	1	0	0.00	29.858 
11:05	70.4	70.4	70.4	77	62.8	0	1	0	0.00	29.862 
11:10	70.3	70.3	70.3	75	62.0	0	1	0	0.00	29.864 
11:15	70.4	70.4	70.4	77	62.8	0	0	---	0.00	29.864 
11:20	70.4	70.4	70.4	77	62.8	0	1	0	0.00	29.864 
11:25	70.3	70.3	70.3	77	62.7	0	1	0	0.00	29.865 
11:30	70.3	70.3	70.3	78	63.1	0	1	0	0.00	29.865 
11:35	70.1	70.1	70.1	78	62.9	0	1	0	0.00	29.866 
11:40	70.1	70.1	70.1	77	62.5	0	2	0	0.00	29.867 
11:45	69.9	69.9	69.9	76	62.0	0	1	0	0.00	29.868 
11:50	69.9	69.9	69.9	76	62.0	0	0	---	0.00	29.868 
11:55	70.1	70.1	70.1	77	62.5	0	1	0	0.00	29.868 
12:00	70.3	70.3	70.3	75	62.0	0	0	---	0.00	29.868 
12:05	70.6	70.6	70.6	75	62.3	0	1	0	0.00	29.867 
12:10	70.9	70.9	70.9	74	62.2	0	1	0	0.00	29.867 
12:15	71.1	71.1	71.1	75	62.8	0	1	0	0.00	29.866 
12:20	71.5	71.5	71.5	74	62.8	0	1	0	0.00	29.866 
12:25	71.6	71.6	71.6	75	63.2	0	2	0	0.00	29.865 
12:30	71.8	71.8	71.8	75	63.4	0	2	0	0.01	29.864 
12:35	72.1	72.1	72.1	74	63.3	0	1	0	0.00	29.864 
12:40	72.5	72.5	72.5	74	63.7	0	1	0	0.00	29.863 
12:45	72.8	72.8	72.8	71	62.8	0	1	0	0.00	29.862 
12:50	73.2	73.2	73.2	73	64.0	0	1	0	0.00	29.859 
12:55	73.7	73.7	73.7	69	62.9	0	1	0	0.00	29.856 
13:00	74.0	74.0	74.0	67	62.3	0	1	0	0.00	29.852 
13:05	74.6	74.6	74.6	69	63.7	1	3	0	0.00	29.850 
13:10	74.9	74.9	74.9	65	62.3	1	2	0	0.00	29.848 
13:15	75.4	75.4	77.3	67	63.7	1	4	45	0.00	29.847 
13:20	75.6	75.6	77.7	62	61.6	1	4	112	0.00	29.847 
13:25	76.0	76.0	77.9	63	62.5	0	2	315	0.00	29.846 
13:30	76.0	76.0	77.8	66	63.8	0	2	315	0.00	29.846 
13:35	76.3	76.3	78.2	62	62.3	0	3	338	0.00	29.846 
13:40	76.7	76.7	78.5	61	62.2	1	3	90	0.00	29.845 
13:45	76.7	76.7	78.5	62	62.7	1	5	68	0.00	29.845 
13:50	76.5	76.5	78.4	59	61.1	1	5	90	0.00	29.844 
13:55	76.5	76.5	78.4	60	61.6	0	2	90	0.00	29.846 
14:00	76.8	76.8	78.6	62	62.8	1	2	90	0.00	29.845 
14:05	77.4	77.4	79.1	59	61.9	1	2	90	0.00	29.847 
14:10	77.9	77.9	79.5	58	61.9	0	1	90	0.00	29.845 
14:15	77.9	77.9	79.5	57	61.4	0	1	90	0.00	29.842 
14:20	78.5	78.5	80.0	58	62.5	0	2	90	0.00	29.841 
14:25	79.0	79.0	80.5	58	62.9	0	1	90	0.00	29.841 
14:30	78.6	78.6	80.1	57	62.1	1	2	90	0.00	29.840 
14:35	78.1	78.1	79.7	58	62.1	0	2	90	0.00	29.842 
14:40	77.7	77.7	79.3	58	61.7	0	3	90	0.00	29.841 
14:45	77.7	77.7	79.4	59	62.2	0	2	90	0.00	29.839 
14:50	77.7	77.7	79.4	60	62.7	1	2	68	0.00	29.836 
14:55	78.1	78.1	79.6	57	61.6	1	3	68	0.00	29.835 
15:00	78.5	78.5	79.9	56	61.5	1	3	68	0.00	29.833 
15:05	78.5	78.5	79.9	55	61.0	1	3	90	0.00	29.835 
15:10	78.8	78.8	80.3	57	62.3	1	3	90	0.00	29.832 
15:15	79.0	79.0	80.3	55	61.4	0	2	90	0.00	29.830 
15:20	79.0	79.0	80.1	52	59.8	0	2	90	0.00	29.829 
15:25	79.4	79.4	80.5	52	60.2	0	2	90	0.00	29.830 
15:30	79.6	79.6	80.7	53	60.9	0	1	68	0.00	29.829 
15:35	79.2	79.2	80.3	52	60.0	0	1	68	0.00	29.831 
15:40	79.0	79.0	80.1	52	59.8	0	1	68	0.00	29.831 
15:45	78.8	78.8	79.7	48	57.4	0	2	68	0.00	29.831 
15:50	79.0	79.0	79.9	49	58.2	1	3	90	0.00	29.831 
15:55	79.2	79.2	79.8	45	56.0	2	4	112	0.00	29.831 
16:00	79.2	79.2	79.7	44	55.4	1	3	90	0.00	29.831 
16:05	79.2	79.2	79.7	44	55.4	0	2	90	0.00	29.834 
16:10	79.4	79.4	80.0	46	56.8	1	4	90	0.00	29.834 
16:15	79.4	79.4	79.8	43	54.9	0	1	90	0.00	29.834 
16:20	79.0	79.0	79.5	43	54.6	0	3	90	0.00	29.834 
16:25	78.8	78.8	79.5	45	55.6	0	3	90	0.00	29.839 
16:30	78.8	78.8	79.3	42	53.7	0	2	90	0.00	29.842 
16:35	78.5	78.5	79.4	46	56.0	1	4	90	0.00	29.847 
16:40	76.1	76.1	78.1	52	57.2	1	7	0	0.00	29.849 
16:45	73.7	73.7	73.7	52	55.0	1	4	180	0.00	29.855 
16:50	71.1	71.1	71.1	62	57.4	1	4	45	0.00	29.859 
16:55	68.4	68.4	68.4	71	58.6	0	1	45	0.02	29.868 
17:00	66.8	66.8	66.8	74	58.2	0	1	45	0.03	29.864 
17:05	66.0	66.0	66.0	77	58.6	0	0	---	0.01	29.860 
17:10	65.5	65.5	65.5	81	59.5	0	0	---	0.01	29.858 
17:15	65.3	65.3	65.3	84	60.3	0	0	---	0.00	29.857 
17:20	65.5	65.5	65.5	86	61.2	0	0	---	0.00	29.855 
17:25	66.0	66.0	66.0	86	61.7	0	1	45	0.00	29.856 
17:30	66.9	66.9	66.9	84	61.9	0	1	45	0.00	29.854 
17:35	67.6	67.6	67.6	76	59.8	0	1	45	0.00	29.854 
17:40	68.6	68.6	68.6	79	61.8	0	0	---	0.00	29.854 
17:45	69.1	69.1	69.1	78	61.9	0	0	---	0.00	29.853 
17:50	69.3	69.3	69.3	77	61.8	0	0	---	0.00	29.852 
17:55	69.3	69.3	69.3	77	61.8	0	0	---	0.00	29.852 
18:00	69.4	69.4	69.4	79	62.6	0	0	---	0.00	29.853 
18:05	69.4	69.4	69.4	81	63.3	0	0	---	0.00	29.853 
18:10	69.3	69.3	69.3	82	63.6	0	0	---	0.00	29.853 
18:15	69.1	69.1	69.1	82	63.4	0	0	---	0.00	29.854 
18:20	68.8	68.8	68.8	79	62.0	0	1	45	0.00	29.857 
18:25	68.6	68.6	68.6	78	61.5	0	1	45	0.00	29.864 
18:30	68.4	68.4	68.4	77	60.9	0	0	---	0.00	29.866 
18:35	68.4	68.4	68.4	77	60.9	0	1	45	0.00	29.866 
18:40	68.4	68.4	68.4	77	60.9	0	1	45	0.00	29.865 
18:45	68.4	68.4	68.4	78	61.3	0	1	45	0.00	29.867 
18:50	68.4	68.4	68.4	79	61.6	0	1	45	0.00	29.867 
18:55	68.6	68.6	68.6	78	61.5	0	0	---	0.00	29.868 
19:00	68.4	68.4	68.4	76	60.5	0	1	45	0.00	29.867 
19:05	68.4	68.4	68.4	77	60.9	0	1	45	0.00	29.867 
19:10	68.4	68.4	68.4	76	60.5	0	1	45	0.00	29.867 
19:15	68.3	68.3	68.3	74	59.7	0	1	45	0.00	29.868 
19:20	68.1	68.1	68.1	75	59.9	0	0	---	0.00	29.868 
19:25	67.9	67.9	67.9	77	60.4	0	0	---	0.00	29.867 
19:30	67.4	67.4	67.4	78	60.3	0	0	---	0.00	29.866 
19:35	67.1	67.1	67.1	79	60.4	0	0	---	0.00	29.868 
19:40	66.9	66.9	66.9	81	60.9	0	0	---	0.00	29.873 
19:45	66.8	66.8	66.8	82	61.1	0	0	---	0.00	29.875 
19:50	66.8	66.8	66.8	83	61.5	0	0	---	0.00	29.876 
19:55	66.6	66.6	66.6	83	61.3	0	0	---	0.00	29.879 
20:00	66.6	66.6	66.6	84	61.6	0	0	---	0.00	29.880 
20:05	66.4	66.4	66.4	84	61.4	0	0	---	0.00	29.879 
20:10	66.6	66.6	66.6	86	62.3	0	0	---	0.00	29.880 
20:15	66.8	66.8	66.8	86	62.5	0	1	45	0.00	29.884 
20:20	66.8	66.8	66.8	85	62.1	0	1	45	0.00	29.887 
20:25	66.8	66.8	66.8	83	61.5	0	1	45	0.00	29.889 
20:30	66.8	66.8	66.8	81	60.8	0	0	---	0.00	29.892 
20:35	66.9	66.9	66.9	80	60.5	0	1	45	0.00	29.894 
20:40	66.9	66.9	66.9	78	59.8	0	1	45	0.00	29.894 
20:45	66.9	66.9	66.9	78	59.8	0	0	---	0.00	29.894 
20:50	66.8	66.8	66.8	78	59.7	0	1	45	0.00	29.891 
20:55	66.6	66.6	66.6	78	59.5	0	0	---	0.00	29.893 
21:00	66.4	66.4	66.4	79	59.7	0	0	---	0.00	29.893 
21:05	66.1	66.1	66.1	79	59.4	0	0	---	0.00	29.895 
21:10	65.6	65.6	65.6	81	59.6	0	0	---	0.00	29.898 
21:15	65.5	65.5	65.5	81	59.5	0	0	---	0.00	29.904 
21:20	65.2	65.2	65.2	82	59.6	0	0	---	0.00	29.908 
21:25	65.0	65.0	65.0	83	59.7	0	0	---	0.00	29.910 
21:30	64.7	64.7	64.7	84	59.7	0	0	---	0.00	29.912 
21:35	64.3	64.3	64.3	85	59.7	0	0	---	0.00	29.922 
21:40	64.0	64.0	64.0	86	59.7	0	0	---	0.00	29.923 
21:45	63.9	63.9	63.9	86	59.6	0	0	---	0.00	29.926 
21:50	63.7	63.7	63.7	87	59.8	0	0	---	0.00	29.928 
21:55	63.7	63.7	63.7	87	59.8	0	0	---	0.00	29.930 
22:00	63.7	63.7	63.7	87	59.8	0	0	---	0.00	29.930 
22:05	63.7	63.7	63.7	87	59.8	0	0	---	0.00	29.930 
22:10	63.7	63.7	63.7	87	59.8	0	1	45	0.00	29.929 
22:15	63.7	63.7	63.7	85	59.1	0	1	45	0.00	29.930 
22:20	63.9	63.9	63.9	84	59.0	0	1	45	0.00	29.931 
22:25	64.0	64.0	64.0	81	58.0	0	1	45	0.00	29.930 
22:30	64.2	64.2	64.2	80	57.9	0	1	45	0.00	29.932 
22:35	64.3	64.3	64.3	78	57.3	0	1	45	0.00	29.935 
22:40	64.5	64.5	64.5	77	57.1	0	1	45	0.00	29.932 
22:45	64.5	64.5	64.5	78	57.5	0	0	---	0.00	29.933 
22:50	64.3	64.3	64.3	78	57.3	0	2	45	0.00	29.936 
22:55	64.5	64.5	64.5	78	57.5	0	2	45	0.00	29.936 
23:00	64.3	64.3	64.3	78	57.3	0	1	45	0.00	29.940 
23:05	64.2	64.2	64.2	79	57.5	0	0	---	0.00	29.943 
23:10	64.0	64.0	64.0	79	57.4	0	0	---	0.00	29.943 
23:15	63.7	63.7	63.7	80	57.4	0	0	---	0.00	29.943 
23:20	63.4	63.4	63.4	80	57.1	0	0	---	0.00	29.943 
23:25	63.1	63.1	63.1	81	57.2	0	0	---	0.00	29.945 
23:30	62.7	62.7	62.7	82	57.1	0	1	45	0.00	29.948 
23:35	62.6	62.6	62.6	83	57.4	0	2	45	0.00	29.946 
23:40	62.6	62.6	62.6	83	57.4	0	0	---	0.00	29.947 
23:45	62.6	62.6	62.6	84	57.7	0	3	45	0.00	29.946 
23:50	62.6	62.6	62.6	85	58.0	0	2	45	0.00	29.949 
23:55	62.6	62.6	62.6	85	58.0	0	1	45	0.00	29.953 

CoCoRaHS
IN-AL-39
A2 Web Hosting
Creative Commons License
GoDaddy
Look for:

loaded 2017-12-12 14:35:37 • last modified 2010-11-18 10:43:29
Privacy PolicyDisclaimer
• wx.awcolley.com is powered by PmWiki v.2002016 •
• all content (unless otherwise noted) © 2017 A W Colley